Hordville, Nebraska
Current Conditions -  °F | °C
As of 11:35 AM on Wednesday 26 Nov 2014 (Local Time) from KAUH Reporting Station
Overcast Overcast  
Wind Chill: 14°   Ceiling: 1900
Heat Index: 28°   Visibility: 10mi
Dew Point: 20°   Wind: 25mph
Humidity: 71%   Direction: 340°NNW
Pressure: 30.2"   Gusts: 30mph
Location:  41.08°N, 97.89°W
Report Text: KAUH 261735Z AUTO 34022G26KT 10SM OVC019 M02/M07 A3020 RMK AO2 T10201067
Loading
Personal Weather Stations






























Interactive Weather Map New forecast layout! Learn more

10-Day Weather Forecast

Advertisements
Track Severe Weather on mobile